Terminal Aerodrome Forecast
Issued by NWS Portland, OR

Home | Current Version | Previous Version | Text Only | Print | Product List | Glossary On
Versions: 1 2 3 4 5 6 7 8 9 10 11 12 13 14 15 16 17 18 19 20 21
000
FTUS46 KPQR 241140
TAFHIO
TAF
KHIO 241140Z 2412/2512 VRB03KT 5SM BR SCT002 BKN040 BKN070
      TEMPO 2412/2416 2SM BR BKN002 OVC040
     FM241800 20006KT P6SM SCT040 BKN070
     FM250000 VRB03KT P6SM FEW070 BKN100
     FM250600 15005KT P6SM SCT100 BKN250=

USA.gov is the U.S. government's official web portal to all federal, state and local government web resources and services.